Mudah untuk digunakan

vPilot, dan Squawkbox

VATSIM memiliki 3 pilot client yang berbeda. Semuanya memberikan kemudahan yang sama bagi pengguna untuk online ke dalam simulasi VATSIM. Semuanya memiliki panduan yang lengkap untuk membantu Anda menggunakan aplikasi ini.

Radar client yang seperti aslinya

EuroScope & VRC

VATSIM memiliki radar client yang sangat advanced karena mensimulasikan secara nyata bagaimana seorang ATC didunia nyata. Walaupun dikatakan advanced, kedua radar client ini sangat mudah untuk digunakan. Dan hal menarik lainnya, VATSIM menggunakan ATIS dalam bentuk suara!

Dengan VATSIM, Anda dapat belajar lebih banyak tentang aviasi.
Anda juga dapat berdiskusi dengan pencinta aviasi lainnya.

Pengalaman Yang Tidak Terlupakan

Aktifitas Terkini

ATC

Nama Posisi
Hoo Jiong Sheng (1234856) WAAF_CTR
Farid Farhan (1260785) WARR_GND
TRISTAN LIU (1295736) WICA_TWR

Pilot

Callsign Nama Rute
CPA785Chris Potter (1269016)VHHH-WADD

*Informasi ini bisa saja tidak mutakhir.

METAR

Nama Bandara - Lokasi (ICAO) METAR
Sultan Hasanuddin - Makassar (WAAA)METAR WAAA 261530Z 18003KT 140V220 8000 FEW019 24/22 Q1011|NOSIG=
I Gusti Ngurah Rai - Denpasar (WADD)METAR WADD 261530Z 12008KT 9999 FEW017 25/22 Q1013|NOSIG=
Ahmad Yani - Semarang (WAHS)SPECI WAHS 261531Z AUTO 00000KT 3900NDV HZ OVC070 27/21 Q1012=
Juanda - Surabaya (WARR)METAR WARR 261530Z 15004KT 5000 HZ FEW020 27/23 Q1012|NOSIG=
Soekarno Hatta - Jakarta (WIII)METAR WIII 261530Z VRB03KT 6000 FEW020 26/21 Q1012|NOSIG=
Halim Perdana Kusuma - Jakarta (WIHH)Tidak ada METAR untuk Halim Perdana Kusuma - Jakarta
Kualanamu International Airport - Deli Serdang (WIMM)METAR WIMM 261530Z 15005KT 9999 SCT017 24/22 Q1011|NOSIG=

*METAR didapatkan dari BMKG. Informasi ini bisa saja tidak mutakhir.

VATSIM Indonesia vACC VATSIM South East Asia VATSIM Asia